WetterOnline ( https://www.wetteronline.de )

Wetter aktuell Schweinfurt

Aktuelles Wetter: Bad Kissingen (266m)

6-stündlich | Neueste Meldungen
Ortszeit Temperatur Wetter
Sa, 04.02. 13:00 3.5° C bedeckt
Sa, 04.02. 7:00 3.2° C bewölkt
Sa, 04.02. 1:00 6.1° C wolkig
Fr, 03.02. 19:00 8.2° C bedeckt
Fr, 03.02. 13:00 7.3° C Sprühregen
Fr, 03.02. 7:00 6.4° C leichter Regen
Fr, 03.02. 1:00 5.5° C leichter Regen
Do, 02.02. 19:00 3.5° C leichter Regen
Ortszeit Temperatur Wetter
Sa, 04.02. 17:00 3.7° C bewölkt
Sa, 04.02. 16:40 3.8° C bewölkt
Sa, 04.02. 16:30 3.9° C wolkig
Sa, 04.02. 16:20 3.9° C wolkig
Sa, 04.02. 16:10 3.9° C wolkig
Sa, 04.02. 16:00 4.3° C bewölkt
Sa, 04.02. 15:50 4.3° C bewölkt
Sa, 04.02. 15:30 4.1° C bedeckt
Sa, 04.02. 15:00 4.0° C bedeckt
Sa, 04.02. 14:30 3.9° C bedeckt
Sa, 04.02. 14:00 3.9° C bedeckt
Ortszeit Relative Feuchte Sichtweite
Sa, 04.02. 13:00 73% >70 km
Sa, 04.02. 7:00 91% 40 km
Sa, 04.02. 1:00 65% 35 km
Fr, 03.02. 19:00 77% 55 km
Fr, 03.02. 13:00 83% 14 km
Fr, 03.02. 7:00 89% 21 km
Fr, 03.02. 1:00 94% 13 km
Do, 02.02. 19:00 99% 4.1 km
Ortszeit Relative Feuchte Sichtweite
Sa, 04.02. 17:00 67% >70 km
Sa, 04.02. 16:40 69% -
Sa, 04.02. 16:30 69% >70 km
Sa, 04.02. 16:20 69% -
Sa, 04.02. 16:10 66% -
Sa, 04.02. 16:00 67% 65 km
Sa, 04.02. 15:50 67% -
Sa, 04.02. 15:30 67% >70 km
Sa, 04.02. 15:00 66% >70 km
Sa, 04.02. 14:30 67% >70 km
Sa, 04.02. 14:00 69% >70 km
Ortszeit Niederschlagsmenge Niederschlagsart
Sa, 04.02. 13:00 0.1 l/m2 in 6 Std. Regen
Sa, 04.02. 7:00 0.2 l/m2 in 12 Std. Regen
Sa, 04.02. 1:00 0.0 l/m2 in 6 Std. -
Fr, 03.02. 19:00 0.3 l/m2 in 12 Std. Regen
Fr, 03.02. 13:00 0.1 l/m2 in 6 Std. Regen
Fr, 03.02. 7:00 4 l/m2 in 12 Std. Regen
Fr, 03.02. 1:00 4 l/m2 in 6 Std. Regen
Do, 02.02. 19:00 13 l/m2 in 12 Std. Regen
Ortszeit Niederschlagsmenge Niederschlagsart
Sa, 04.02. 17:00 0.0 l/m2 in 1 Std. -
Sa, 04.02. 16:40 keine Meldung -
Sa, 04.02. 16:30 0.0 l/m2 in 30 Min -
Sa, 04.02. 16:20 keine Meldung -
Sa, 04.02. 16:10 keine Meldung -
Sa, 04.02. 16:00 0.0 l/m2 in 1 Std. -
Sa, 04.02. 15:50 keine Meldung -
Sa, 04.02. 15:30 0.0 l/m2 in 30 Min -
Sa, 04.02. 15:00 0.0 l/m2 in 1 Std. -
Sa, 04.02. 14:30 0.0 l/m2 in 30 Min -
Sa, 04.02. 14:00 0.0 l/m2 in 1 Std. -
Ortszeit Stärke Spitze Richtung
km/h Bft. km/h Grad Sektor
Sa, 04.02. 13:00 11 2 25 90° O
Sa, 04.02. 7:00 7 2 43 350° N
Sa, 04.02. 1:00 25 4 47 320° NW
Fr, 03.02. 19:00 22 4 58 300° NW
Fr, 03.02. 13:00 29 5 58 240° SW
Fr, 03.02. 7:00 18 3 43 240° SW
Fr, 03.02. 1:00 22 4 40 250° W
Do, 02.02. 19:00 6 1 24 80° O
Ortszeit Stärke Spitze Richtung
km/h Bft. km/h Grad Sektor
Sa, 04.02. 17:00 4 1 11 60° NO
Sa, 04.02. 16:40 4 1 - 100° O
Sa, 04.02. 16:30 4 1 11 90° O
Sa, 04.02. 16:20 4 1 - 90° O
Sa, 04.02. 16:10 6 1 - 80° O
Sa, 04.02. 16:00 4 1 11 90° O
Sa, 04.02. 15:50 4 1 - 90° O
Sa, 04.02. 15:30 6 1 11 60° NO
Sa, 04.02. 15:00 7 2 11 80° O
Sa, 04.02. 14:30 6 1 11 90° O
Sa, 04.02. 14:00 7 2 17 80° O
Ortszeit Untergrenze Bedeckung Gattung
total tief tief mittel hoch
Sa, 04.02. 13:00 810 m 8/8 8/8 - - -
Sa, 04.02. 7:00 570 m 7/8 7/8 - - -
Sa, 04.02. 1:00 1080 m 7/8 3/8 - - -
Fr, 03.02. 19:00 810 m 8/8 8/8 - - -
Fr, 03.02. 13:00 510 m 7/8 7/8 - - -
Fr, 03.02. 7:00 570 m 8/8 8/8 - - -
Fr, 03.02. 1:00 510 m 8/8 8/8 - - -
Do, 02.02. 19:00 420 m 7/8 7/8 - - -
Ortszeit Bedeckungsgrad in Achtel und Wolkenuntergrenze
Sa, 04.02. 17:00 7(900m) 7(1110m)
Sa, 04.02. 16:40 7
Sa, 04.02. 16:30 2(900m) 6(1110m)
Sa, 04.02. 16:20 2(900m) 6(1110m)
Sa, 04.02. 16:10 6
Sa, 04.02. 16:00 7(1110m)
Sa, 04.02. 15:50 7(1110m)
Sa, 04.02. 15:30 8(1080m)
Sa, 04.02. 15:00 2(900m) 8(1080m)
Sa, 04.02. 14:30 5(870m) 8(1080m)
Sa, 04.02. 14:00 3(870m) 8(1110m)
Ortszeit Luftdruck NN (hPa) Tendenz (hPa in 3 Std.)
Sa, 04.02. 13:00 1038 + 1,7
Sa, 04.02. 7:00 1033 + 2,6
Sa, 04.02. 1:00 1028 + 1,3
Fr, 03.02. 19:00 1024 + 1,7
Fr, 03.02. 13:00 1022 - 1,7
Fr, 03.02. 7:00 1024 - 1,0
Fr, 03.02. 1:00 1027 + 0,2
Do, 02.02. 19:00 1026 + 2,1
Ortszeit Luftdruck NN (hPa) Tendenz (hPa in 3 Std.)
Sa, 04.02. 17:00 1038 + 0,7
Sa, 04.02. 16:40 1038 keine Meldung
Sa, 04.02. 16:30 1038 + 0,5
Sa, 04.02. 16:20 1038 keine Meldung
Sa, 04.02. 16:10 1038 keine Meldung
Sa, 04.02. 16:00 1038 + 0,3
Sa, 04.02. 15:50 1038 keine Meldung
Sa, 04.02. 15:30 1038 + 0,6
Sa, 04.02. 15:00 1038 + 0,8
Sa, 04.02. 14:30 1038 + 0,7
Sa, 04.02. 14:00 1038 + 0,8
Ortszeit Schneehöhe (cm)
Sa, 04.02. 13:00 0
Sa, 04.02. 7:00 0
Sa, 04.02. 1:00 0
Fr, 03.02. 19:00 0
Fr, 03.02. 13:00 0
Fr, 03.02. 7:00 0
Fr, 03.02. 1:00 0
Do, 02.02. 19:00 0
Ortszeit Schneehöhe (cm)
Sa, 04.02. 17:00 0
Sa, 04.02. 16:40 0
Sa, 04.02. 16:30 0
Sa, 04.02. 16:20 0
Sa, 04.02. 16:10 0
Sa, 04.02. 16:00 0
Sa, 04.02. 15:50 0
Sa, 04.02. 15:30 0
Sa, 04.02. 15:00 0
Sa, 04.02. 14:30 0
Sa, 04.02. 14:00 0
Link zu dieser Seite / Seite empfehlen

Das Wetter in ...